Time;durP1;ratioP1;P1;durP2;ratioP2;P2;SDS_P1;SDS_P2;PMS_P1;PMS_P2;Temp;Humidity;BMP_temperature;BMP_pressure;BME280_temperature;BME280_humidity;BME280_pressure;Samples;Min_cycle;Max_cycle;Signal;HPM_P1;HPM_P2
2023/09/14 00:01:47;;;;;;;5.50;2.00;;;;;;;;;;5077259;28;20180;-54
2023/09/14 00:04:14;;;;;;;4.70;1.50;;;;;;;;;;5095770;28;20536;-52
2023/09/14 00:06:41;;;;;;;6.30;1.37;;;;;;;;;;5077565;28;20229;-51
2023/09/14 00:09:09;;;;;;;3.93;1.30;;;;;;;;;;5075407;28;20205;-54
2023/09/14 00:11:35;;;;;;;5.67;1.40;;;;;;;;;;5094899;28;20233;-53
2023/09/14 00:14:01;;;;;;;5.33;1.53;;;;;;;;;;5078238;28;20661;-51
2023/09/14 00:16:27;;;;;;;4.10;1.10;;;;;;;;;;5076272;28;20180;-52
2023/09/14 00:18:53;;;;;;;4.20;1.27;;;;;;;;;;5075772;28;20181;-53
2023/09/14 00:21:21;;;;;;;3.40;1.33;;;;;;;;;;5078290;28;20160;-49
2023/09/14 00:23:47;;;;;;;6.67;1.30;;;;;;;;;;5077497;28;20332;-51
2023/09/14 00:26:15;;;;;;;3.23;1.73;;;;;;;;;;5073797;28;20168;-52
2023/09/14 00:28:41;;;;;;;6.13;1.30;;;;;;;;;;5072412;28;20179;-55
2023/09/14 00:31:07;;;;;;;5.20;1.70;;;;;;;;;;5091047;28;20443;-52
2023/09/14 00:33:33;;;;;;;4.90;1.50;;;;;;;;;;5072455;28;20524;-53
2023/09/14 00:35:59;;;;;;;7.47;1.30;;;;;;;;;;5072069;28;20175;-51
2023/09/14 00:38:25;;;;;;;3.73;1.23;;;;;;;;;;5089524;28;20176;-48
2023/09/14 00:40:51;;;;;;;5.33;1.77;;;;;;;;;;5072846;28;20196;-48
2023/09/14 00:43:19;;;;;;;2.80;1.30;;;;;;;;;;5073281;28;20176;-54
2023/09/14 00:45:46;;;;;;;5.87;1.67;;;;;;;;;;5074213;28;20571;-52
2023/09/14 00:48:12;;;;;;;6.40;1.50;;;;;;;;;;5074320;28;20453;-52
2023/09/14 00:50:39;;;;;;;3.37;1.63;;;;;;;;;;5092673;28;20237;-53
2023/09/14 00:53:13;;;;;;;3.93;1.30;;;;;;;;;;5067751;28;20347;-53
2023/09/14 00:55:39;;;;;;;2.70;1.00;;;;;;;;;;5069002;28;20580;-51
2023/09/14 00:58:07;;;;;;;7.00;1.70;;;;;;;;;;5070647;28;20603;-54
2023/09/14 01:00:33;;;;;;;3.17;1.13;;;;;;;;;;5072026;28;20200;-53
2023/09/14 01:02:59;;;;;;;4.33;1.23;;;;;;;;;;5071060;28;20169;-54
2023/09/14 01:05:28;;;;;;;4.77;1.67;;;;;;;;;;5071187;28;20204;-49
2023/09/14 01:07:54;;;;;;;5.00;1.30;;;;;;;;;;5069214;28;20176;-52
2023/09/14 01:10:20;;;;;;;3.67;1.30;;;14.50;99.90;;;;;;5069232;28;20191;-50
2023/09/14 01:12:47;;;;;;;5.07;1.73;;;14.60;99.90;;;;;;5069827;28;20173;-51
2023/09/14 01:15:19;;;;;;;2.50;1.00;;;14.50;99.90;;;;;;5070300;28;20520;-50
2023/09/14 01:18:03;;;;;;;2.53;1.00;;;14.40;99.90;;;;;;5069069;28;20169;-48
2023/09/14 01:20:38;;;;;;;6.63;1.40;;;14.40;99.90;;;;;;5072604;28;20239;-50
2023/09/14 01:23:30;;;;;;;4.20;1.60;;;14.30;99.90;;;;;;5073987;28;20298;-48
2023/09/14 01:25:58;;;;;;;4.93;1.20;;;14.30;99.90;;;;;;5065347;28;20188;-49
2023/09/14 01:28:24;;;;;;;5.77;1.30;;;14.30;99.90;;;;;;5072102;28;20180;-52
2023/09/14 01:30:50;;;;;;;4.47;1.37;;;14.30;99.90;;;;;;5072148;28;20172;-49
2023/09/14 01:33:17;;;;;;;1.63;0.90;;;14.30;99.90;;;;;;5072039;28;20181;-52
2023/09/14 01:35:54;;;;;;;4.17;0.83;;;14.30;99.90;;;;;;5072934;28;20204;-50
2023/09/14 01:38:22;;;;;;;7.10;1.70;;;14.20;99.90;;;;;;5074364;28;20208;-48
2023/09/14 01:40:49;;;;;;;1.73;0.90;;;14.20;99.90;;;;;;5075131;28;20692;-49
2023/09/14 01:43:17;;;;;;;6.33;1.70;;;14.20;99.90;;;;;;5074907;28;20165;-50
2023/09/14 01:45:43;;;;;;;2.17;1.10;;;14.20;99.90;;;;;;5057527;28;20176;-52
2023/09/14 01:48:14;;;;;;;4.77;1.30;;;14.20;99.90;;;;;;5073923;28;20376;-48
2023/09/14 01:50:40;;;;;;;2.83;1.33;;;14.10;99.90;;;;;;5075482;28;20625;-49
2023/09/14 01:53:06;;;;;;;3.33;1.20;;;14.10;99.90;;;;;;5074616;28;20331;-53
2023/09/14 01:55:32;;;;;;;5.87;1.40;;;14.10;99.90;;;;;;5075607;28;20272;-54
2023/09/14 01:57:57;;;;;;;3.40;1.20;;;14.10;99.90;;;;;;5073483;28;20176;-52
2023/09/14 02:00:25;;;;;;;3.53;1.30;;;14.00;99.90;;;;;;5071735;28;20208;-50
2023/09/14 02:02:52;;;;;;;1.67;1.07;;;14.00;99.90;;;;;;5073718;28;20197;-52
2023/09/14 02:05:18;;;;;;;2.23;1.20;;;14.00;99.90;;;;;;5074463;28;20504;-54
2023/09/14 02:07:44;;;;;;;4.63;1.43;;;14.00;99.90;;;;;;5072089;28;20537;-51
2023/09/14 02:10:10;;;;;;;3.07;1.10;;;13.90;99.90;;;;;;5073042;28;20502;-51
2023/09/14 02:12:35;;;;;;;3.87;1.53;;;13.80;99.90;;;;;;5073127;28;20177;-50
2023/09/14 02:15:01;;;;;;;3.57;1.37;;;13.90;99.90;;;;;;5075498;28;20177;-51
2023/09/14 02:17:29;;;;;;;3.17;1.77;;;13.90;99.90;;;;;;5073360;28;20180;-52
2023/09/14 02:19:55;;;;;;;2.03;0.97;;;13.90;99.90;;;;;;5072605;28;20304;-50
2023/09/14 02:22:20;;;;;;;2.27;1.57;;;13.80;99.90;;;;;;5072354;28;20263;-51
2023/09/14 02:24:47;;;;;;;3.10;1.83;;;13.80;99.90;;;;;;5072370;28;20556;-50
2023/09/14 02:27:13;;;;;;;3.93;1.30;;;13.80;99.90;;;;;;5073872;28;20210;-52
2023/09/14 02:29:39;;;;;;;3.97;1.30;;;13.80;99.90;;;;;;5073861;28;20188;-52
2023/09/14 02:32:08;;;;;;;1.73;1.30;;;13.80;99.90;;;;;;5071118;28;20173;-52
2023/09/14 02:34:34;;;;;;;4.10;1.33;;;13.80;99.90;;;;;;5072551;28;20177;-50
2023/09/14 02:37:00;;;;;;;2.47;1.20;;;13.70;99.90;;;;;;5073462;28;20505;-50
2023/09/14 02:39:25;;;;;;;4.20;1.20;;;13.70;99.90;;;;;;5072644;28;20310;-51
2023/09/14 02:41:51;;;;;;;4.33;1.53;;;13.70;99.90;;;;;;5072047;28;20205;-52
2023/09/14 02:44:16;;;;;;;4.00;1.10;;;13.70;99.90;;;;;;5072423;28;20259;-50
2023/09/14 02:46:42;;;;;;;6.07;1.37;;;13.60;99.90;;;;;;5073780;28;20519;-53
2023/09/14 02:49:08;;;;;;;4.07;1.30;;;13.70;99.90;;;;;;5073026;28;20268;-53
2023/09/14 02:51:35;;;;;;;4.10;1.47;;;13.60;99.90;;;;;;5073602;28;20173;-48
2023/09/14 02:54:02;;;;;;;4.20;1.20;;;13.60;99.90;;;;;;5072727;28;20474;-54
2023/09/14 02:56:27;;;;;;;3.20;1.60;;;13.60;99.90;;;;;;5072808;28;20242;-49
2023/09/14 02:58:53;;;;;;;3.30;1.20;;;13.60;99.90;;;;;;5070062;28;20514;-48
2023/09/14 03:01:20;;;;;;;3.37;1.60;;;13.60;99.90;;;;;;5073743;28;20180;-54
2023/09/14 03:03:46;;;;;;;7.07;1.90;;;13.50;99.90;;;;;;5072178;28;20165;-51
2023/09/14 03:06:12;;;;;;;1.57;1.00;;;13.50;99.90;;;;;;5071284;28;20157;-50
2023/09/14 03:08:38;;;;;;;3.63;1.20;;;13.50;99.90;;;;;;5070746;28;20222;-52
2023/09/14 03:11:04;;;;;;;3.07;1.10;;;13.50;99.90;;;;;;5068302;28;20169;-49
2023/09/14 03:13:30;;;;;;;3.70;1.53;;;13.50;99.90;;;;;;5069375;28;20398;-53
2023/09/14 03:15:58;;;;;;;3.60;1.60;;;13.50;99.90;;;;;;5068475;28;20360;-50
2023/09/14 03:18:24;;;;;;;3.53;1.27;;;13.40;99.90;;;;;;5069649;28;20187;-52
2023/09/14 03:20:54;;;;;;;3.63;1.27;;;13.40;99.90;;;;;;5070879;28;20479;-48
2023/09/14 03:23:21;;;;;;;4.10;1.17;;;;;;;;;;5070496;28;20181;-48
2023/09/14 03:25:50;;;;;;;4.50;1.23;;;;;;;;;;5072094;28;20211;-50
2023/09/14 03:28:17;;;;;;;4.83;1.17;;;;;;;;;;5070476;28;20666;-53
2023/09/14 03:30:43;;;;;;;4.63;1.23;;;;;;;;;;5071296;28;20183;-49
2023/09/14 03:33:11;;;;;;;3.47;1.13;;;;;;;;;;5069760;28;20177;-54
2023/09/14 03:35:37;;;;;;;3.40;1.60;;;;;;;;;;5072057;28;20650;-53
2023/09/14 03:38:03;;;;;;;3.90;1.30;;;;;;;;;;5071437;28;20173;-50
2023/09/14 03:40:29;;;;;;;2.73;1.00;;;;;;;;;;5072378;28;20485;-50
2023/09/14 03:42:55;;;;;;;5.00;1.13;;;;;;;;;;5069761;28;20183;-53
2023/09/14 03:45:21;;;;;;;2.87;1.00;;;;;;;;;;5071921;28;20173;-50
2023/09/14 03:47:50;;;;;;;2.53;1.10;;;;;;;;;;5071844;28;20169;-55
2023/09/14 03:50:16;;;;;;;4.37;1.30;;;;;;;;;;5070587;28;20337;-51
2023/09/14 03:52:42;;;;;;;1.83;0.90;;;;;;;;;;5069554;28;20228;-54
2023/09/14 03:58:12;;;;;;;4.07;1.40;;;;;;;;;;5073599;28;20476;-51
2023/09/14 04:00:38;;;;;;;4.17;1.20;;;;;;;;;;5070583;28;20593;-53
2023/09/14 04:03:04;;;;;;;4.93;1.10;;;;;;;;;;5069346;28;20660;-54
2023/09/14 04:05:30;;;;;;;2.37;1.20;;;;;;;;;;5071207;28;20275;-53
2023/09/14 04:07:56;;;;;;;2.93;1.40;;;;;;;;;;5071072;28;20264;-51
2023/09/14 04:10:22;;;;;;;3.03;1.30;;;;;;;;;;5070992;28;20339;-53
2023/09/14 04:12:50;;;;;;;3.53;1.30;;;;;;;;;;5070475;28;20271;-52
2023/09/14 04:15:16;;;;;;;2.13;1.07;;;;;;;;;;5069969;28;20172;-55
2023/09/14 04:17:42;;;;;;;3.10;1.10;;;;;;;;;;5067682;28;20210;-53
2023/09/14 04:20:11;;;;;;;2.10;1.03;;;;;;;;;;5067326;28;20201;-53
2023/09/14 04:22:38;;;;;;;2.40;1.00;;;;;;;;;;5065614;28;20441;-53
2023/09/14 04:25:04;;;;;;;2.30;1.23;;;;;;;;;;5065752;28;20379;-49
2023/09/14 04:27:30;;;;;;;1.40;0.97;;;;;;;;;;5064737;28;20173;-51
2023/09/14 04:29:56;;;;;;;2.73;1.00;;;;;;;;;;5064019;28;20164;-51
2023/09/14 04:32:22;;;;;;;3.97;1.00;;;;;;;;;;5064807;28;20215;-48
2023/09/14 04:34:48;;;;;;;2.10;1.50;;;;;;;;;;5066932;28;20191;-53
2023/09/14 04:37:14;;;;;;;2.10;1.30;;;;;;;;;;5066352;28;20276;-53
2023/09/14 04:39:40;;;;;;;3.07;1.50;;;;;;;;;;5066972;28;20307;-54
2023/09/14 04:42:06;;;;;;;3.23;1.60;;;;;;;;;;5067797;28;20173;-51
2023/09/14 04:44:32;;;;;;;4.43;1.73;;;;;;;;;;5067111;28;20161;-52
2023/09/14 04:46:58;;;;;;;4.40;1.53;;;;;;;;;;5067043;28;20246;-53
2023/09/14 04:49:24;;;;;;;5.10;1.50;;;;;;;;;;5067113;28;20181;-53
2023/09/14 04:51:50;;;;;;;3.00;1.60;;;;;;;;;;5066548;28;20168;-50
2023/09/14 04:54:16;;;;;;;3.97;1.50;;;;;;;;;;5069136;28;20663;-50
2023/09/14 04:56:42;;;;;;;4.83;1.43;;;;;;;;;;5070079;28;20629;-50
2023/09/14 04:59:08;;;;;;;3.60;1.33;;;;;;;;;;5071860;28;20271;-51
2023/09/14 05:01:34;;;;;;;4.07;1.73;;;;;;;;;;5071379;28;20371;-54
2023/09/14 05:04:00;;;;;;;3.27;1.90;;;;;;;;;;5087827;28;20175;-53
2023/09/14 05:06:26;;;;;;;3.47;1.50;;;;;;;;;;5085244;28;20182;-50
2023/09/14 05:08:52;;;;;;;4.53;1.33;;;;;;;;;;5069316;28;20191;-52
2023/09/14 05:11:18;;;;;;;2.63;1.27;;;;;;;;;;5069969;28;20271;-52
2023/09/14 05:13:44;;;;;;;4.37;2.23;;;;;;;;;;5069685;28;20168;-51
2023/09/14 05:16:10;;;;;;;5.77;1.57;;;;;;;;;;5069166;28;20272;-50
2023/09/14 05:18:36;;;;;;;2.27;1.40;;;;;;;;;;5069801;28;20674;-50
2023/09/14 05:21:03;;;;;;;2.33;1.20;;;;;;;;;;5087298;28;20599;-55
2023/09/14 05:23:29;;;;;;;3.73;1.33;;;;;;;;;;5069010;28;20176;-51
2023/09/14 05:25:55;;;;;;;4.10;1.30;;;;;;;;;;5070113;28;20172;-53
2023/09/14 05:28:22;;;;;;;3.13;1.40;;;;;;;;;;5086890;28;20284;-55
2023/09/14 05:30:48;;;;;;;3.97;1.70;;;;;;;;;;5068642;28;20541;-49
2023/09/14 05:33:14;;;;;;;2.27;1.40;;;;;;;;;;5065916;28;20267;-50
2023/09/14 05:35:40;;;;;;;2.67;1.20;;;;;;;;;;5066263;28;20458;-49
2023/09/14 05:38:06;;;;;;;3.40;1.40;;;;;;;;;;5066142;28;20172;-51
2023/09/14 05:40:35;;;;;;;3.97;1.80;;;;;;;;;;5065717;28;20200;-51
2023/09/14 05:43:01;;;;;;;4.70;1.60;;;;;;;;;;5066684;28;20270;-55
2023/09/14 05:45:27;;;;;;;4.47;1.50;;;;;;;;;;5066576;28;20267;-53
2023/09/14 05:47:53;;;;;;;3.73;1.50;;;;;;;;;;5064516;28;20402;-51
2023/09/14 05:50:19;;;;;;;4.43;1.40;;;;;;;;;;5066660;28;20359;-51
2023/09/14 05:52:45;;;;;;;2.83;1.67;;;;;;;;;;5083958;28;20228;-51
2023/09/14 05:55:11;;;;;;;2.63;1.40;;;;;;;;;;5065584;28;20176;-51
2023/09/14 05:57:37;;;;;;;3.50;1.30;;;;;;;;;;5064205;28;20552;-53
2023/09/14 06:00:12;;;;;;;2.83;1.10;;;;;;;;;;5065425;28;20555;-51
2023/09/14 06:02:38;;;;;;;3.00;1.43;;;;;;;;;;5063882;28;20299;-50
2023/09/14 06:05:04;;;;;;;2.73;1.30;;;;;;;;;;5063257;28;20229;-54
2023/09/14 06:07:30;;;;;;;4.37;1.70;;;;;;;;;;5063971;28;20316;-50
2023/09/14 06:09:56;;;;;;;2.17;1.50;;;;;;;;;;5085990;28;20508;-49
2023/09/14 06:12:23;;;;;;;4.60;1.27;;;;;;;;;;5068121;28;20375;-51
2023/09/14 06:14:50;;;;;;;3.63;1.43;;;;;;;;;;5069047;28;20176;-51
2023/09/14 06:17:16;;;;;;;3.13;1.47;;;;;;;;;;5069250;28;20184;-51
2023/09/14 06:19:42;;;;;;;2.77;2.10;;;;;;;;;;5087211;28;20196;-49
2023/09/14 06:22:08;;;;;;;2.73;1.10;;;;;;;;;;5067744;28;20442;-49
2023/09/14 06:24:35;;;;;;;3.97;1.23;;;;;;;;;;5068752;28;20230;-51
2023/09/14 06:27:01;;;;;;;4.67;1.40;;;;;;;;;;5069332;28;20472;-53
2023/09/14 06:29:27;;;;;;;4.17;1.30;;;;;;;;;;5069871;28;20532;-52
2023/09/14 06:31:53;;;;;;;3.77;1.47;;;;;;;;;;5070021;28;20176;-54
2023/09/14 06:34:20;;;;;;;3.77;1.20;;;;;;;;;;5068071;28;20527;-54
2023/09/14 06:36:46;;;;;;;2.67;1.30;;;;;;;;;;5069897;28;20230;-52
2023/09/14 06:39:13;;;;;;;4.40;1.43;;;;;;;;;;5068145;28;20464;-49
2023/09/14 06:41:39;;;;;;;1.70;1.07;;;;;;;;;;5066722;28;20450;-53
2023/09/14 06:44:05;;;;;;;2.53;1.37;;;;;;;;;;5085056;28;20279;-51
2023/09/14 06:46:31;;;;;;;4.63;1.50;;;;;;;;;;5066378;28;20411;-51
2023/09/14 06:48:58;;;;;;;4.33;1.67;;;;;;;;;;5066058;28;20175;-52
2023/09/14 06:51:24;;;;;;;4.53;1.33;;;;;;;;;;5084771;28;20208;-49
2023/09/14 06:53:51;;;;;;;5.87;1.70;;;;;;;;;;5083511;28;20228;-55
2023/09/14 06:56:18;;;;;;;3.60;1.30;;;;;;;;;;5083909;28;20207;-53
2023/09/14 06:58:44;;;;;;;8.97;1.30;;;;;;;;;;5065357;28;20513;-53
2023/09/14 07:01:11;;;;;;;5.83;1.57;;;;;;;;;;5083301;28;20469;-50
2023/09/14 07:03:37;;;;;;;5.17;1.50;;;;;;;;;;5066482;28;20191;-52
2023/09/14 07:06:03;;;;;;;6.00;1.40;;;;;;;;;;5086296;28;20215;-49
2023/09/14 07:08:30;;;;;;;3.73;1.40;;;;;;;;;;5068867;28;20477;-53
2023/09/14 07:10:57;;;;;;;2.17;1.20;;;;;;;;;;5067904;28;20613;-55
2023/09/14 07:13:24;;;;;;;5.57;1.67;;;;;;;;;;5069996;28;20172;-51
2023/09/14 07:15:52;;;;;;;2.70;1.10;;;;;;;;;;5070661;28;20550;-50
2023/09/14 07:18:29;;;;;;;2.83;1.10;;;;;;;;;;5068561;28;20540;-50
2023/09/14 07:20:56;;;;;;;3.07;1.10;;;;;;;;;;5084946;28;20357;-49
2023/09/14 07:23:22;;;;;;;1.23;0.70;;;;;;;;;;5068393;28;20176;-53
2023/09/14 07:25:48;;;;;;;3.90;1.00;;;;;;;;;;5067992;28;20186;-50
2023/09/14 07:28:18;;;;;;;4.70;1.43;;;;;;;;;;5088243;28;20308;-51
2023/09/14 07:30:44;;;;;;;3.97;1.00;;;;;;;;;;5070730;28;20196;-53
2023/09/14 07:33:11;;;;;;;4.40;1.10;;;;;;;;;;5071056;28;20584;-49
2023/09/14 07:35:37;;;;;;;2.33;0.90;;;;;;;;;;5091226;28;20172;-51
2023/09/14 07:38:03;;;;;;;3.60;1.17;;;;;;;;;;5072007;28;20658;-50
2023/09/14 07:40:29;;;;;;;3.77;1.20;;;;;;;;;;5071905;28;20208;-51
2023/09/14 07:42:56;;;;;;;2.27;0.97;;;;;;;;;;5071335;28;20179;-49
2023/09/14 07:45:22;;;;;;;7.17;1.50;;;;;;;;;;5069553;28;20164;-49
2023/09/14 07:47:49;;;;;;;1.60;1.23;;;;;;;;;;5070107;28;20182;-51
2023/09/14 07:50:15;;;;;;;4.60;1.20;;;;;;;;;;5068312;28;20176;-51
2023/09/14 07:52:41;;;;;;;3.40;0.90;;;;;;;;;;5062900;28;21233;-52
2023/09/14 07:55:08;;;;;;;2.67;1.03;;;;;;;;;;5063451;28;20173;-50
2023/09/14 07:57:34;;;;;;;1.57;0.93;;;;;;;;;;5062899;28;20179;-49
2023/09/14 08:00:00;;;;;;;1.33;0.83;;;;;;;;;;5065327;28;20196;-52
2023/09/14 08:02:27;;;;;;;2.40;0.90;;;;;;;;;;5063561;28;20646;-50
2023/09/14 08:04:53;;;;;;;3.57;0.97;;;;;;;;;;5064762;28;20208;-52
2023/09/14 08:07:19;;;;;;;4.20;1.20;;;;;;;;;;5064403;28;20180;-52
2023/09/14 08:09:46;;;;;;;2.67;1.00;;;;;;;;;;5061429;28;20175;-49
2023/09/14 08:12:13;;;;;;;1.73;0.80;;;;;;;;;;5063817;28;20172;-51
2023/09/14 08:14:39;;;;;;;5.23;1.33;;;;;;;;;;5064735;28;20173;-51
2023/09/14 08:17:05;;;;;;;5.33;1.30;;;;;;;;;;5065865;28;20355;-49
2023/09/14 08:19:31;;;;;;;4.73;1.43;;;;;;;;;;5064318;28;20203;-53
2023/09/14 08:21:59;;;;;;;3.73;1.20;;;;;;;;;;5063932;28;20169;-51
2023/09/14 08:24:25;;;;;;;2.27;0.90;;;;;;;;;;5062160;28;20183;-52
2023/09/14 08:26:51;;;;;;;2.63;0.80;;;;;;;;;;5066666;28;20208;-53
2023/09/14 08:29:17;;;;;;;3.60;1.03;;;;;;;;;;5064907;28;20579;-49
2023/09/14 08:31:44;;;;;;;4.70;1.40;;;;;;;;;;5066902;28;20169;-52
2023/09/14 08:34:10;;;;;;;2.00;1.10;;;;;;;;;;5066603;28;20520;-51
2023/09/14 08:36:38;;;;;;;3.33;1.20;;;;;;;;;;5067586;28;20589;-54
2023/09/14 08:39:04;;;;;;;5.37;1.80;;;;;;;;;;5066379;28;20226;-51
2023/09/14 08:41:36;;;;;;;2.47;0.83;;;;;;;;;;5065665;28;20223;-50
2023/09/14 08:44:02;;;;;;;4.73;1.63;;;;;;;;;;5064696;28;20438;-51
2023/09/14 08:46:29;;;;;;;3.90;1.07;;;;;;;;;;5063491;28;20177;-51
2023/09/14 08:48:56;;;;;;;1.10;0.80;;;;;;;;;;5062568;28;20181;-52
2023/09/14 08:51:25;;;;;;;4.80;1.20;;;;;;;;;;5062181;28;20172;-54
2023/09/14 08:53:52;;;;;;;3.07;1.00;;;;;;;;;;5081973;28;20611;-52
2023/09/14 08:56:20;;;;;;;4.30;0.97;;;;;;;;;;5067469;28;20175;-54
2023/09/14 08:58:46;;;;;;;1.13;0.80;;;;;;;;;;5066655;28;20183;-51
2023/09/14 09:01:13;;;;;;;2.57;0.90;;;;;;;;;;5063929;28;20306;-53
2023/09/14 09:03:39;;;;;;;3.40;0.80;;;;;;;;;;5085127;28;20171;-51
2023/09/14 09:06:05;;;;;;;3.40;0.90;;;;;;;;;;5068691;28;20168;-52
2023/09/14 09:08:32;;;;;;;1.07;0.70;;;;;;;;;;5069356;28;20305;-52
2023/09/14 09:10:59;;;;;;;1.40;0.80;;;;;;;;;;5070488;28;20172;-52
2023/09/14 09:13:32;;;;;;;1.43;0.50;;;;;;;;;;5069920;28;20184;-50
2023/09/14 09:15:59;;;;;;;1.37;0.50;;;;;;;;;;5068844;28;20563;-51
2023/09/14 09:18:26;;;;;;;3.67;0.73;;;;;;;;;;5069714;28;20183;-52
2023/09/14 09:20:52;;;;;;;4.30;1.03;;;;;;;;;;5066844;28;20210;-51
2023/09/14 09:23:21;;;;;;;5.80;0.90;;;;;;;;;;5065322;28;20233;-49
2023/09/14 09:25:48;;;;;;;1.87;0.70;;;;;;;;;;5064418;28;20168;-53
2023/09/14 09:28:14;;;;;;;0.50;0.50;;;;;;;;;;5082764;28;20161;-51
2023/09/14 09:30:40;;;;;;;2.03;0.70;;;;;;;;;;5082616;28;20324;-54
2023/09/14 09:33:07;;;;;;;2.27;0.67;;;;;;;;;;5065382;28;20180;-51
2023/09/14 09:35:34;;;;;;;1.67;0.90;;;;;;;;;;5063780;28;20258;-52
2023/09/14 09:38:01;;;;;;;4.60;1.20;;;;;;;;;;5062759;28;20199;-56
2023/09/14 09:40:28;;;;;;;3.77;0.77;;;;;;;;;;5062873;28;20599;-55
2023/09/14 09:42:54;;;;;;;4.40;1.63;;;;;;;;;;5085605;28;20214;-54
2023/09/14 09:45:21;;;;;;;3.83;0.70;;;;;;;;;;5065399;28;20176;-56
2023/09/14 09:47:47;;;;;;;3.77;0.60;;;;;;;;;;5064822;28;20176;-50
2023/09/14 09:50:14;;;;;;;2.13;0.70;;;;;;;;;;5063765;28;20168;-51
2023/09/14 09:52:42;;;;;;;1.53;0.80;;;;;;;;;;5060548;28;20369;-53
2023/09/14 09:55:08;;;;;;;2.97;0.80;;;;;;;;;;5060587;28;20230;-50
2023/09/14 09:57:38;;;;;;;4.07;0.77;;;;;;;;;;5061667;28;20168;-53
2023/09/14 10:00:14;;;;;;;3.80;0.83;;;;;;;;;;5061287;28;20219;-53
2023/09/14 10:02:41;;;;;;;3.80;0.63;;;;;;;;;;5063822;28;20299;-54
2023/09/14 10:05:07;;;;;;;3.20;0.57;;;;;;;;;;5065379;28;20255;-50
2023/09/14 10:07:40;;;;;;;2.50;0.80;;;;;;;;;;5065401;28;20529;-55
2023/09/14 10:10:07;;;;;;;1.60;0.67;;;;;;;;;;5065548;28;20176;-50
2023/09/14 10:12:37;;;;;;;4.50;0.70;;;;;;;;;;5065497;28;20172;-49
2023/09/14 10:15:04;;;;;;;2.13;0.70;;;;;;;;;;5064172;28;20588;-52
2023/09/14 10:17:31;;;;;;;3.80;0.80;;;;;;;;;;5065094;28;20181;-52
2023/09/14 10:19:58;;;;;;;2.13;0.90;;;;;;;;;;5062023;28;20294;-52
2023/09/14 10:22:25;;;;;;;2.10;1.03;;;;;;;;;;5063221;28;20517;-52
2023/09/14 10:24:52;;;;;;;1.73;0.77;;;;;;;;;;5064080;28;20588;-52
2023/09/14 10:27:18;;;;;;;1.90;0.70;;;;;;;;;;5065356;28;20632;-53
2023/09/14 10:29:45;;;;;;;2.27;1.13;;;;;;;;;;5069611;28;20176;-51
2023/09/14 10:32:11;;;;;;;1.43;0.60;;;;;;;;;;5068547;28;20187;-55
2023/09/14 10:34:39;;;;;;;1.87;0.70;;;;;;;;;;5067055;28;20293;-52
2023/09/14 10:37:06;;;;;;;2.13;0.60;;;;;;;;;;5071139;28;20173;-55
2023/09/14 10:39:33;;;;;;;1.20;0.80;;;;;;;;;;5071746;28;20201;-52
2023/09/14 10:41:59;;;;;;;2.00;0.73;;;;;;;;;;5070934;28;20702;-54
2023/09/14 10:44:27;;;;;;;4.17;0.67;;;;;;;;;;5070508;28;20811;-51
2023/09/14 10:46:56;;;;;;;2.40;1.10;;;;;;;;;;5069542;28;20183;-52
2023/09/14 10:49:30;;;;;;;3.97;0.77;;;;;;;;;;5068845;28;20635;-56
2023/09/14 10:51:56;;;;;;;2.03;0.60;;;;;;;;;;5070880;28;20165;-55
2023/09/14 10:54:25;;;;;;;3.90;0.60;;;;;;;;;;5072036;28;20274;-56
2023/09/14 10:56:58;;;;;;;1.50;0.70;;;;;;;;;;5073190;28;20172;-50
2023/09/14 10:59:44;;;;;;;2.27;0.60;;;;;;;;;;5073956;28;20582;-54
2023/09/14 11:02:10;;;;;;;0.97;0.60;;;;;;;;;;5055529;28;20257;-51
2023/09/14 11:04:56;;;;;;;1.27;0.50;;;;;;;;;;5071865;28;20246;-53
2023/09/14 11:07:37;;;;;;;0.93;0.50;;;;;;;;;;5073393;28;20172;-56
2023/09/14 11:10:04;;;;;;;2.17;0.90;;;;;;;;;;5092582;28;20201;-56
2023/09/14 11:12:31;;;;;;;1.73;0.70;;;;;;;;;;5073745;28;20176;-54
2023/09/14 11:15:16;;;;;;;2.87;0.67;;;;;;;;;;5073832;28;20241;-52
2023/09/14 11:17:46;;;;;;;3.57;0.80;;;;;;;;;;5074399;28;20845;-55
2023/09/14 11:20:21;;;;;;;2.83;1.00;;;;;;;;;;5091302;28;20595;-55
2023/09/14 11:22:48;;;;;;;2.00;0.90;;;;;;;;;;5071637;28;20168;-53
2023/09/14 11:25:34;;;;;;;1.80;0.53;;;;;;;;;;5071662;28;20528;-55
2023/09/14 11:28:00;;;;;;;1.83;0.60;;;;;;;;;;5089563;28;20160;-53
2023/09/14 11:30:30;;;;;;;1.80;0.70;;;;;;;;;;5089104;28;20797;-56
2023/09/14 11:32:57;;;;;;;2.70;1.00;;;;;;;;;;5088420;28;20183;-51
2023/09/14 11:35:45;;;;;;;1.60;0.67;;;;;;;;;;5071373;28;20179;-54
2023/09/14 11:38:16;;;;;;;2.37;0.70;;;;;;;;;;5070699;28;20172;-50
2023/09/14 11:40:42;;;;;;;3.13;0.90;;;;;;;;;;5087621;28;20884;-52
2023/09/14 11:43:20;;;;;;;2.77;0.93;;;;;;;;;;5085876;28;20206;-54
2023/09/14 11:45:47;;;;;;;1.13;0.70;;;;;;;;;;5060208;28;20206;-50
2023/09/14 11:48:14;;;;;;;2.10;0.90;;;;;;;;;;5078344;28;20373;-54
2023/09/14 11:50:41;;;;;;;2.20;0.77;;;;;;;;;;5082319;28;20178;-50
2023/09/14 11:53:08;;;;;;;1.73;0.63;;;;;;;;;;5069662;28;20280;-49
2023/09/14 11:55:34;;;;;;;1.03;0.73;;;;;;;;;;5069757;28;20176;-51
2023/09/14 11:58:01;;;;;;;0.93;0.70;;;;;;;;;;5068238;28;20184;-56
2023/09/14 12:00:36;;;;;;;2.80;0.80;;;;;;;;;;5070290;28;20208;-51
2023/09/14 12:03:02;;;;;;;2.57;0.60;;;;;;;;;;5070115;28;20182;-53
2023/09/14 12:05:28;;;;;;;2.27;0.70;;;;;;;;;;5068748;28;20168;-55
2023/09/14 12:07:55;;;;;;;5.50;0.90;;;;;;;;;;5068931;28;20175;-51
2023/09/14 12:10:23;;;;;;;0.97;0.60;;;;;;;;;;5087468;28;20180;-50
2023/09/14 12:12:50;;;;;;;3.13;1.00;;;;;;;;;;5067391;28;20456;-54
2023/09/14 12:15:19;;;;;;;2.23;0.77;;;;;;;;;;5061212;28;20253;-56
2023/09/14 12:17:50;;;;;;;3.03;0.70;;;;;;;;;;5061225;28;20559;-54
2023/09/14 12:20:17;;;;;;;2.87;0.90;;;;;;;;;;5061925;28;20226;-51
2023/09/14 12:22:44;;;;;;;2.07;1.00;;;;;;;;;;5062813;28;20556;-50
2023/09/14 12:25:11;;;;;;;2.93;0.90;;;;;;;;;;5063967;28;20179;-54
2023/09/14 12:27:37;;;;;;;2.43;1.03;;;;;;;;;;5062967;28;20164;-50
2023/09/14 12:30:06;;;;;;;1.27;0.53;;;;;;;;;;5065732;28;20286;-54
2023/09/14 12:32:32;;;;;;;3.23;1.00;;;;;;;;;;5082629;28;20176;-51
2023/09/14 12:34:59;;;;;;;1.97;0.87;;;;;;;;;;5081999;28;20168;-54
2023/09/14 12:37:27;;;;;;;3.50;1.03;;;;;;;;;;5064055;28;20579;-52
2023/09/14 12:39:53;;;;;;;1.47;0.70;;;;;;;;;;5082932;28;20200;-49
2023/09/14 12:42:22;;;;;;;0.80;0.40;;;;;;;;;;5065969;28;20175;-52
2023/09/14 12:44:49;;;;;;;4.57;0.87;;;;;;;;;;5083278;28;20171;-51
2023/09/14 12:47:16;;;;;;;2.13;0.93;;;;;;;;;;5082596;28;20172;-51
2023/09/14 12:49:43;;;;;;;2.73;0.77;;;;;;;;;;5064384;28;20175;-52
2023/09/14 12:52:10;;;;;;;2.50;0.90;;;;;;;;;;5084300;28;20535;-53
2023/09/14 12:54:36;;;;;;;0.90;0.73;;;;;;;;;;5064956;28;20362;-53
2023/09/14 12:57:15;;;;;;;2.43;1.00;;;;;;;;;;5063178;28;20176;-54
2023/09/14 13:00:14;;;;;;;2.27;1.00;;;;;;;;;;5063471;28;20210;-52
2023/09/14 13:02:41;;;;;;;3.00;1.03;;;;;;;;;;5060653;28;20329;-53
2023/09/14 13:05:07;;;;;;;2.10;1.10;;;;;;;;;;5060999;28;20281;-52
2023/09/14 13:07:35;;;;;;;1.80;0.90;;;;;;;;;;5061279;28;20182;-55
2023/09/14 13:10:08;;;;;;;2.50;1.07;;;;;;;;;;5060978;28;20458;-50
2023/09/14 13:12:35;;;;;;;0.83;0.40;;;;;;;;;;5079618;28;20172;-55
2023/09/14 13:15:04;;;;;;;2.10;0.60;;;;;;;;;;5062469;28;20474;-55
2023/09/14 13:17:30;;;;;;;2.33;0.70;;;;;;;;;;5075091;28;20176;-50
2023/09/14 13:19:58;;;;;;;1.73;0.90;;;;;;;;;;5073829;28;20206;-51
2023/09/14 13:22:24;;;;;;;4.07;0.80;;;;;;;;;;5076004;28;20163;-55
2023/09/14 13:24:50;;;;;;;0.60;0.60;;;;;;;;;;5073510;28;20523;-53
2023/09/14 13:27:17;;;;;;;2.20;0.90;;;;;;;;;;5075825;28;20220;-54
2023/09/14 13:29:43;;;;;;;3.77;0.80;;;;;;;;;;5074612;28;20179;-55
2023/09/14 13:32:09;;;;;;;2.87;1.07;;;;;;;;;;5073520;28;20168;-55
2023/09/14 13:34:35;;;;;;;2.17;0.87;;;;;;;;;;5090533;28;20476;-53
2023/09/14 13:37:01;;;;;;;2.53;0.73;;;;;;;;;;5073374;28;20192;-52
2023/09/14 13:39:27;;;;;;;1.63;0.87;;;;;;;;;;5074587;28;20280;-56
2023/09/14 13:41:54;;;;;;;2.60;1.13;;;;;;;;;;5092294;28;20171;-55
2023/09/14 13:44:20;;;;;;;2.53;0.90;;;;;;;;;;5075602;28;20259;-56
2023/09/14 13:46:47;;;;;;;1.73;0.77;;;;;;;;;;5074246;28;20274;-56
2023/09/14 13:49:13;;;;;;;1.60;0.90;;;;;;;;;;5074651;28;20275;-55
2023/09/14 13:51:39;;;;;;;3.65;1.20;;;;;;;;;;5073755;28;20179;-53
2023/09/14 13:54:12;;;;;;;3.40;1.05;;;;;;;;;;5071234;28;20228;-56
2023/09/14 13:56:38;;;;;;;2.57;1.00;;;;;;;;;;5070755;28;20226;-50
2023/09/14 13:59:04;;;;;;;3.03;1.10;;;;;;;;;;5072355;28;20165;-56
2023/09/14 14:01:31;;;;;;;1.73;0.70;;;;;;;;;;5070773;28;20820;-55
2023/09/14 14:03:57;;;;;;;3.57;0.80;;;;;;;;;;5070973;28;20300;-56
2023/09/14 14:06:24;;;;;;;2.20;1.43;;;;;;;;;;5071202;28;20244;-55
2023/09/14 14:08:50;;;;;;;2.80;0.73;;;;;;;;;;5070882;28;20161;-52
2023/09/14 14:11:19;;;;;;;3.63;1.03;;;;;;;;;;5072454;28;20231;-56
2023/09/14 14:13:46;;;;;;;1.93;0.93;;;;;;;;;;5071083;28;20773;-53
2023/09/14 14:16:13;;;;;;;3.87;1.13;;;;;;;;;;5070082;28;20240;-53
2023/09/14 14:18:38;;;;;;;3.13;1.00;;;;;;;;;;5070028;28;20177;-51
2023/09/14 14:21:05;;;;;;;2.78;0.85;;;;;;;;;;5072082;28;20697;-55
2023/09/14 14:23:31;;;;;;;2.63;1.00;;;;;;;;;;5071520;28;20164;-54
2023/09/14 14:25:57;;;;;;;3.37;1.00;;;;;;;;;;5071253;28;20573;-51
2023/09/14 14:28:27;;;;;;;1.70;0.85;;;;;;;;;;5069479;28;20580;-56